createdAt,value
2024-01-11T00:02:11.219Z,98336.69
2024-01-11T00:04:41.390Z,98341.47
2024-01-11T00:07:11.478Z,98333.09
2024-01-11T00:09:42.452Z,98338.00
2024-01-11T00:12:14.218Z,98333.63
2024-01-11T00:14:43.139Z,98318.78
2024-01-11T00:17:11.567Z,98326.75
2024-01-11T00:19:40.513Z,98326.47
2024-01-11T00:22:08.870Z,98321.53
2024-01-11T00:24:39.607Z,98324.34
2024-01-11T00:27:12.884Z,98322.31
2024-01-11T00:29:41.613Z,98314.91
2024-01-11T00:32:09.889Z,98307.59
2024-01-11T00:34:38.478Z,98318.63
2024-01-11T00:37:09.736Z,98315.66
2024-01-11T00:39:37.838Z,98312.00
2024-01-11T00:42:06.633Z,98309.72
2024-01-11T00:44:36.354Z,98309.13
2024-01-11T00:47:08.106Z,98311.75
2024-01-11T00:49:37.047Z,98310.19
2024-01-11T00:52:06.097Z,98306.28
2024-01-11T00:54:34.263Z,98299.31
2024-01-11T00:57:02.346Z,98296.28
2024-01-11T00:59:32.221Z,98286.44
2024-01-11T01:02:02.347Z,98294.09
2024-01-11T01:04:30.526Z,98290.22
2024-01-11T01:06:58.612Z,98278.72
2024-01-11T01:09:26.813Z,98269.66
2024-01-11T01:11:55.090Z,98264.16
2024-01-11T01:14:23.272Z,98260.09
2024-01-11T01:16:51.561Z,98266.00
2024-01-11T01:23:59.984Z,98267.94
2024-01-11T01:26:54.467Z,98276.66
2024-01-11T01:29:23.016Z,98270.53
2024-01-11T01:31:51.107Z,98262.53
2024-01-11T01:34:20.198Z,98267.09
2024-01-11T01:36:48.337Z,98275.72
2024-01-11T01:39:18.198Z,98275.31
2024-01-11T01:41:46.187Z,98273.41
2024-01-11T01:44:14.332Z,98283.78
2024-01-11T01:46:43.610Z,98280.19
2024-01-11T01:49:14.126Z,98282.34
2024-01-11T01:51:42.577Z,98284.34
2024-01-11T01:54:10.815Z,98278.94
2024-01-11T01:56:40.449Z,98270.78
2024-01-11T01:59:09.542Z,98273.56
2024-01-11T02:01:38.012Z,98266.78
2024-01-11T02:04:06.865Z,98272.75
2024-01-11T02:06:36.526Z,98281.81
2024-01-11T02:09:05.739Z,98275.34
2024-01-11T02:11:35.552Z,98274.81
2024-01-11T02:14:06.010Z,98269.75
2024-01-11T02:16:34.976Z,98268.91
2024-01-11T02:19:03.395Z,98282.16
2024-01-11T02:21:33.313Z,98278.91
2024-01-11T02:24:08.287Z,98268.50
2024-01-11T02:26:36.873Z,98264.34
2024-01-11T02:29:05.311Z,98278.38
2024-01-11T02:31:37.290Z,98281.06
2024-01-11T02:34:06.162Z,98274.78
2024-01-11T02:36:34.581Z,98280.59
2024-01-11T02:39:03.360Z,98271.72
2024-01-11T02:41:34.834Z,98270.47
2024-01-11T02:44:03.981Z,98277.94
2024-01-11T02:46:32.966Z,98282.34
2024-01-11T02:49:01.647Z,98283.69
2024-01-11T02:51:29.883Z,98279.22
2024-01-11T02:53:59.176Z,98278.38
2024-01-11T02:56:27.499Z,98278.72
2024-01-11T02:58:58.144Z,98277.22
2024-01-11T03:01:26.602Z,98274.78
2024-01-11T03:03:54.787Z,98279.72
2024-01-11T03:06:23.937Z,98280.59
2024-01-11T03:08:52.032Z,98283.75
2024-01-11T03:11:20.376Z,98282.13
2024-01-11T03:13:48.569Z,98281.44
2024-01-11T03:16:17.950Z,98279.78
2024-01-11T03:18:46.166Z,98289.81
2024-01-11T03:21:14.607Z,98282.47
2024-01-11T03:23:42.758Z,98264.72
2024-01-11T03:26:15.559Z,98263.41
2024-01-11T03:28:43.798Z,98270.00
2024-01-11T03:31:12.844Z,98253.97
2024-01-11T03:33:42.854Z,98252.19
2024-01-11T03:36:12.063Z,98244.41
2024-01-11T03:38:40.818Z,98235.47
2024-01-11T03:41:12.734Z,98231.53
2024-01-11T03:43:41.028Z,98217.16
2024-01-11T03:46:08.163Z,98214.41
2024-01-11T03:48:37.189Z,98212.91
2024-01-11T03:51:09.517Z,98213.69
2024-01-11T03:53:39.284Z,98206.03
2024-01-11T03:56:07.761Z,98201.81
2024-01-11T03:58:40.465Z,98189.91
2024-01-11T04:01:11.830Z,98190.47
2024-01-11T04:03:40.289Z,98198.25
2024-01-11T04:06:10.345Z,98193.00
2024-01-11T04:08:38.732Z,98185.88
2024-01-11T04:11:08.157Z,98188.19
2024-01-11T04:13:40.130Z,98207.81
2024-01-11T04:16:08.956Z,98206.81
2024-01-11T04:18:37.248Z,98199.78
2024-01-11T04:21:06.054Z,98192.13
2024-01-11T04:23:38.759Z,98208.34
2024-01-11T04:26:06.895Z,98214.59
2024-01-11T04:28:34.882Z,98220.38
2024-01-11T04:31:02.948Z,98218.81
2024-01-11T04:33:31.166Z,98232.25
2024-01-11T04:35:59.595Z,98245.59
2024-01-11T04:38:27.755Z,98236.97
2024-01-11T04:40:57.638Z,98232.69
2024-01-11T04:43:25.763Z,98248.03
2024-01-11T04:45:54.200Z,98240.28
2024-01-11T04:48:22.378Z,98244.75
2024-01-11T04:50:50.881Z,98238.88
2024-01-11T04:53:19.677Z,98253.66
2024-01-11T04:55:47.794Z,98246.91
2024-01-11T04:58:17.561Z,98252.03
2024-01-11T05:00:45.634Z,98254.66
2024-01-11T05:03:13.773Z,98253.25
2024-01-11T05:05:42.151Z,98250.72
2024-01-11T05:08:10.342Z,98242.72
2024-01-11T05:10:38.498Z,98235.50
2024-01-11T05:13:06.625Z,98231.91
2024-01-11T05:15:36.882Z,98227.38
2024-01-11T05:18:05.890Z,98223.22
2024-01-11T05:20:34.281Z,98225.22
2024-01-11T05:23:02.910Z,98218.13
2024-01-11T05:25:34.742Z,98216.88
2024-01-11T05:28:03.636Z,98222.41
2024-01-11T05:30:32.053Z,98218.69
2024-01-11T05:33:02.232Z,98226.97
2024-01-11T05:35:30.478Z,98232.75
2024-01-11T05:37:58.926Z,98235.50
2024-01-11T05:40:27.148Z,98229.09
2024-01-11T05:42:55.225Z,98233.09
2024-01-11T05:45:29.142Z,98234.94
2024-01-11T05:48:07.213Z,98227.25
2024-01-11T05:50:35.437Z,98237.00
2024-01-11T05:53:03.984Z,98236.38
2024-01-11T05:55:32.178Z,98238.22
2024-01-11T05:58:00.260Z,98249.56
2024-01-11T06:00:28.422Z,98245.47
2024-01-11T06:02:56.548Z,98244.44
2024-01-11T06:05:26.425Z,98243.59
2024-01-11T06:07:54.535Z,98242.44
2024-01-11T06:10:22.684Z,98231.69
2024-01-11T06:12:50.880Z,98243.34
2024-01-11T06:15:19.502Z,98246.22
2024-01-11T06:17:47.734Z,98253.06
2024-01-11T06:20:16.270Z,98250.78
2024-01-11T06:22:46.398Z,98238.25
2024-01-11T06:25:16.103Z,98239.78
2024-01-11T06:27:44.931Z,98234.41
2024-01-11T06:30:14.075Z,98230.59
2024-01-11T06:32:42.204Z,98226.94
2024-01-11T06:35:10.786Z,98235.41
2024-01-11T06:37:39.925Z,98232.47
2024-01-11T06:40:10.395Z,98235.84
2024-01-11T06:42:38.435Z,98226.50
2024-01-11T06:45:07.820Z,98221.31
2024-01-11T06:47:36.062Z,98221.94
2024-01-11T06:50:04.760Z,98219.38
2024-01-11T06:52:32.822Z,98207.53
2024-01-11T06:55:02.116Z,98206.56
2024-01-11T06:57:31.550Z,98176.00
2024-01-11T06:59:59.724Z,98177.09
2024-01-11T07:02:28.024Z,98177.66
2024-01-11T07:04:56.471Z,98168.81
2024-01-11T07:07:24.603Z,98170.75
2024-01-11T07:09:56.223Z,98167.00
2024-01-11T07:12:24.477Z,98177.81
2024-01-11T07:14:54.099Z,98176.84
2024-01-11T07:17:24.056Z,98181.72
2024-01-11T07:19:52.102Z,98197.47
2024-01-11T07:22:20.324Z,98185.44
2024-01-11T07:24:48.406Z,98178.88
2024-01-11T07:27:16.995Z,98178.78
2024-01-11T07:29:45.143Z,98180.38
2024-01-11T07:32:14.796Z,98183.66
2024-01-11T07:34:43.025Z,98176.75
2024-01-11T07:37:11.514Z,98167.25
2024-01-11T07:39:39.634Z,98181.88
2024-01-11T07:42:09.133Z,98191.88
2024-01-11T07:44:37.333Z,98188.03
2024-01-11T07:47:05.716Z,98179.72
2024-01-11T07:49:35.110Z,98184.22
2024-01-11T07:52:03.431Z,98189.97
2024-01-11T07:54:33.212Z,98186.63
2024-01-11T07:57:01.314Z,98172.44
2024-01-11T07:59:29.365Z,98173.72
2024-01-11T08:01:57.684Z,98173.41
2024-01-11T08:04:25.947Z,98179.59
2024-01-11T08:06:55.482Z,98184.59
2024-01-11T08:09:23.572Z,98178.53
2024-01-11T08:11:52.755Z,98188.56
2024-01-11T08:14:21.949Z,98196.53
2024-01-11T08:16:50.173Z,98213.34
2024-01-11T08:19:18.467Z,98203.84
2024-01-11T08:21:46.648Z,98201.88
2024-01-11T08:24:16.065Z,98186.81
2024-01-11T08:26:44.852Z,98179.28
2024-01-11T08:29:13.912Z,98174.69
2024-01-11T08:31:44.955Z,98168.41
2024-01-11T08:34:13.423Z,98165.84
2024-01-11T08:36:41.612Z,98164.53
2024-01-11T08:39:12.689Z,98171.16
2024-01-11T08:41:42.527Z,98163.56
2024-01-11T08:44:12.113Z,98150.66
2024-01-11T08:46:40.320Z,98142.34
2024-01-11T08:49:08.896Z,98154.31
2024-01-11T08:51:37.216Z,98166.03
2024-01-11T08:54:10.087Z,98172.19
2024-01-11T08:56:38.437Z,98179.34
2024-01-11T08:59:10.074Z,98193.19
2024-01-11T09:01:38.509Z,98202.03
2024-01-11T09:04:07.494Z,98195.25
2024-01-11T09:06:35.771Z,98185.44
2024-01-11T09:09:03.927Z,98172.34
2024-01-11T09:11:33.094Z,98176.63
2024-01-11T09:14:01.220Z,98186.31
2024-01-11T09:16:31.014Z,98184.81
2024-01-11T09:19:01.281Z,98182.72
2024-01-11T09:21:29.414Z,98192.59
2024-01-11T09:23:57.483Z,98199.84
2024-01-11T09:26:25.719Z,98192.66
2024-01-11T09:28:53.792Z,98182.03
2024-01-11T09:31:21.876Z,98167.69
2024-01-11T09:33:51.745Z,98183.50
2024-01-11T09:36:20.587Z,98189.97
2024-01-11T09:38:49.976Z,98196.50
2024-01-11T09:41:20.122Z,98189.00
2024-01-11T09:43:52.579Z,98181.56
2024-01-11T09:46:22.089Z,98191.88
2024-01-11T09:48:52.854Z,98180.56
2024-01-11T09:51:21.262Z,98178.22
2024-01-11T09:53:52.210Z,98183.53
2024-01-11T09:56:20.922Z,98177.03
2024-01-11T09:58:51.301Z,98166.91
2024-01-11T10:01:20.042Z,98175.72
2024-01-11T10:03:48.400Z,98170.25
2024-01-11T10:06:19.886Z,98155.94
2024-01-11T10:08:48.226Z,98163.50
2024-01-11T10:11:16.759Z,98146.44
2024-01-11T10:13:46.240Z,98142.34
2024-01-11T10:16:16.646Z,98146.84
2024-01-11T10:18:45.618Z,98136.72
2024-01-11T10:21:13.843Z,98137.47
2024-01-11T10:23:44.093Z,98124.44
2024-01-11T10:26:12.185Z,98125.31
2024-01-11T10:28:41.430Z,98131.13
2024-01-11T10:31:09.611Z,98117.72
2024-01-11T10:33:38.893Z,98113.50
2024-01-11T10:36:08.879Z,98115.56
2024-01-11T10:38:39.615Z,98115.47
2024-01-11T10:41:11.065Z,98112.66
2024-01-11T10:43:40.298Z,98104.31
2024-01-11T10:46:09.951Z,98099.28
2024-01-11T10:48:41.179Z,98091.72
2024-01-11T10:51:17.286Z,98085.75
2024-01-11T10:53:47.524Z,98081.97
2024-01-11T10:56:18.221Z,98074.81
2024-01-11T10:58:47.680Z,98072.94
2024-01-11T11:01:16.415Z,98084.00
2024-01-11T11:03:46.080Z,98082.84
2024-01-11T11:06:14.775Z,98077.78
2024-01-11T11:08:44.368Z,98084.94
2024-01-11T11:11:15.129Z,98078.88
2024-01-11T11:13:48.797Z,98081.31
2024-01-11T11:16:17.447Z,98079.53
2024-01-11T11:18:45.834Z,98077.56
2024-01-11T11:21:14.959Z,98094.22
2024-01-11T11:23:43.167Z,98094.53
2024-01-11T11:26:17.799Z,98099.56
2024-01-11T11:28:49.993Z,98091.50
2024-01-11T11:31:36.933Z,98078.16
2024-01-11T11:34:07.459Z,98074.88
2024-01-11T11:36:36.445Z,98059.72
2024-01-11T11:39:05.354Z,98060.00
2024-01-11T11:41:34.310Z,98054.66
2024-01-11T11:44:07.695Z,98064.38
2024-01-11T11:46:36.282Z,98064.19
2024-01-11T11:49:05.090Z,98051.94
2024-01-11T11:51:35.187Z,98048.34
2024-01-11T11:54:04.739Z,98040.78
2024-01-11T11:56:33.164Z,98033.88
2024-01-11T11:59:04.057Z,98036.53
2024-01-11T12:01:34.780Z,98035.16
2024-01-11T12:04:03.904Z,98035.63
2024-01-11T12:06:32.439Z,98036.25
2024-01-11T12:09:00.806Z,98042.63
2024-01-11T12:11:29.893Z,98040.47
2024-01-11T12:13:59.154Z,98035.28
2024-01-11T12:16:28.697Z,98029.28
2024-01-11T12:18:58.550Z,98039.31
2024-01-11T12:21:28.239Z,98034.50
2024-01-11T12:23:57.069Z,98031.19
2024-01-11T12:26:26.311Z,98030.63
2024-01-11T12:28:55.079Z,98022.88
2024-01-11T12:31:24.529Z,98027.31
2024-01-11T12:33:53.543Z,98020.13
2024-01-11T12:36:23.194Z,98025.66
2024-01-11T12:38:53.242Z,98027.31
2024-01-11T12:41:24.307Z,98033.88
2024-01-11T12:43:53.918Z,98026.38
2024-01-11T12:46:22.229Z,98019.94
2024-01-11T12:48:51.282Z,98024.16
2024-01-11T12:51:22.540Z,98025.34
2024-01-11T12:53:54.944Z,98021.41
2024-01-11T12:56:24.458Z,98008.66
2024-01-11T12:58:53.286Z,98003.97
2024-01-11T13:01:22.152Z,98005.91
2024-01-11T13:03:51.319Z,98017.44
2024-01-11T13:06:20.875Z,98021.78
2024-01-11T13:08:49.374Z,98022.72
2024-01-11T13:11:22.223Z,98025.81
2024-01-11T13:13:50.475Z,98013.47
2024-01-11T13:16:20.317Z,98007.25
2024-01-11T13:18:48.864Z,98010.56
2024-01-11T13:21:19.503Z,98011.09
2024-01-11T13:23:48.007Z,98000.63
2024-01-11T13:26:16.511Z,97996.78
2024-01-11T13:28:46.117Z,98009.19
2024-01-11T13:31:14.221Z,98015.66
2024-01-11T13:33:42.780Z,98013.03
2024-01-11T13:36:11.027Z,98016.88
2024-01-11T13:38:39.399Z,98015.72
2024-01-11T13:41:09.490Z,98018.53
2024-01-11T13:43:38.293Z,98018.63
2024-01-11T13:46:07.771Z,98016.69
2024-01-11T13:48:36.602Z,98011.22
2024-01-11T13:51:05.509Z,98002.22
2024-01-11T13:53:34.924Z,97992.50
2024-01-11T13:56:03.500Z,97995.16
2024-01-11T13:58:32.283Z,97995.91
2024-01-11T14:01:00.766Z,98003.06
2024-01-11T14:03:30.611Z,97999.06
2024-01-11T14:05:59.286Z,97999.75
2024-01-11T14:08:27.989Z,97988.28
2024-01-11T14:10:56.346Z,97990.69
2024-01-11T14:13:24.653Z,97991.28
2024-01-11T14:15:53.123Z,97992.00
2024-01-11T14:18:22.336Z,98005.13
2024-01-11T14:20:52.264Z,98004.72
2024-01-11T14:23:20.993Z,98014.41
2024-01-11T14:25:50.213Z,97998.34
2024-01-11T14:28:18.408Z,98005.56
2024-01-11T14:30:47.446Z,98009.91
2024-01-11T14:33:16.030Z,98014.72
2024-01-11T14:35:44.296Z,98014.22
2024-01-11T14:38:13.960Z,98028.66
2024-01-11T14:40:42.961Z,98029.41
2024-01-11T14:43:11.239Z,98029.09
2024-01-11T14:45:39.497Z,98036.41
2024-01-11T14:48:08.397Z,98024.09
2024-01-11T14:50:36.540Z,98019.41
2024-01-11T14:53:06.549Z,98004.22
2024-01-11T14:55:39.211Z,98016.81
2024-01-11T14:58:08.265Z,98018.03
2024-01-11T15:00:36.468Z,98016.47
2024-01-11T15:03:05.952Z,98023.66
2024-01-11T15:05:35.412Z,98021.56
2024-01-11T15:08:04.447Z,98034.09
2024-01-11T15:10:33.448Z,98030.69
2024-01-11T15:13:03.486Z,98030.03
2024-01-11T15:15:32.015Z,98037.97
2024-01-11T15:18:00.699Z,98030.63
2024-01-11T15:20:29.018Z,98034.25
2024-01-11T15:22:57.347Z,98035.31
2024-01-11T15:25:27.911Z,98031.66
2024-01-11T15:27:56.365Z,98037.81
2024-01-11T15:30:26.067Z,98033.44
2024-01-11T15:32:57.842Z,98034.41
2024-01-11T15:35:28.068Z,98036.91
2024-01-11T15:37:56.753Z,98030.03
2024-01-11T15:40:25.111Z,98023.97
2024-01-11T15:42:53.175Z,98027.13
2024-01-11T15:45:23.108Z,98035.84
2024-01-11T15:47:52.959Z,98033.50
2024-01-11T15:50:21.602Z,98019.00
2024-01-11T15:52:49.823Z,98013.28
2024-01-11T15:55:18.102Z,98012.97
2024-01-11T15:57:46.268Z,98012.84
2024-01-11T16:00:15.524Z,98023.56
2024-01-11T16:02:44.395Z,98022.06
2024-01-11T16:05:14.140Z,98037.59
2024-01-11T16:07:42.443Z,98042.72
2024-01-11T16:10:11.822Z,98058.28
2024-01-11T16:12:40.393Z,98062.66
2024-01-11T16:15:09.200Z,98056.47
2024-01-11T16:17:37.621Z,98063.84
2024-01-11T16:20:08.240Z,98080.91
2024-01-11T16:22:38.019Z,98087.44
2024-01-11T16:25:07.623Z,98094.50
2024-01-11T16:27:35.744Z,98105.06
2024-01-11T16:30:04.857Z,98121.97
2024-01-11T16:32:34.281Z,98131.28
2024-01-11T16:35:06.844Z,98134.41
2024-01-11T16:37:35.230Z,98130.84
2024-01-11T16:40:04.944Z,98126.81
2024-01-11T16:42:33.830Z,98129.53
2024-01-11T16:45:02.084Z,98130.59
2024-01-11T16:47:37.052Z,98134.31
2024-01-11T16:50:07.320Z,98133.28
2024-01-11T16:52:35.442Z,98127.53
2024-01-11T16:55:05.559Z,98115.78
2024-01-11T16:57:33.759Z,98122.66
2024-01-11T17:00:04.000Z,98110.13
2024-01-11T17:02:32.792Z,98129.47
2024-01-11T17:05:01.148Z,98130.38
2024-01-11T17:07:29.738Z,98140.94
2024-01-11T17:09:58.287Z,98144.88
2024-01-11T17:12:28.105Z,98153.63
2024-01-11T17:14:57.891Z,98153.78
2024-01-11T17:17:28.013Z,98152.88
2024-01-11T17:19:56.216Z,98156.97
2024-01-11T17:22:24.369Z,98163.03
2024-01-11T17:24:53.340Z,98162.31
2024-01-11T17:27:21.474Z,98164.06
2024-01-11T17:29:51.606Z,98157.25
2024-01-11T17:32:19.830Z,98165.88
2024-01-11T17:34:53.237Z,98161.91
2024-01-11T17:37:22.144Z,98172.91
2024-01-11T17:39:50.543Z,98186.53
2024-01-11T17:42:22.185Z,98195.28
2024-01-11T17:44:51.887Z,98198.19
2024-01-11T17:47:20.503Z,98195.88
2024-01-11T17:49:48.929Z,98204.22
2024-01-11T17:52:17.604Z,98209.78
2024-01-11T17:54:45.858Z,98218.16
2024-01-11T17:57:13.975Z,98207.91
2024-01-11T17:59:44.374Z,98212.91
2024-01-11T18:02:14.162Z,98212.91
2024-01-11T18:04:43.686Z,98217.34
2024-01-11T18:07:12.190Z,98227.03
2024-01-11T18:09:40.495Z,98227.88
2024-01-11T18:12:09.176Z,98222.63
2024-01-11T18:14:37.411Z,98222.78
2024-01-11T18:17:06.013Z,98225.63
2024-01-11T18:19:36.011Z,98231.22
2024-01-11T18:22:04.478Z,98226.44
2024-01-11T18:24:33.323Z,98222.72
2024-01-11T18:27:01.399Z,98222.63
2024-01-11T18:29:29.733Z,98219.16
2024-01-11T18:31:58.096Z,98216.84
2024-01-11T18:34:26.253Z,98214.41
2024-01-11T18:36:55.770Z,98212.47
2024-01-11T18:39:23.971Z,98222.78
2024-01-11T18:41:52.849Z,98221.59
2024-01-11T18:44:21.745Z,98228.44
2024-01-11T18:46:49.762Z,98223.53
2024-01-11T18:49:19.673Z,98216.47
2024-01-11T18:51:48.080Z,98223.63
2024-01-11T18:54:18.576Z,98219.41
2024-01-11T18:56:47.366Z,98217.47
2024-01-11T18:59:15.549Z,98214.00
2024-01-11T19:01:49.008Z,98210.03
2024-01-11T19:04:17.583Z,98204.78
2024-01-11T19:06:46.362Z,98203.09
2024-01-11T19:09:14.708Z,98200.59
2024-01-11T19:11:44.503Z,98192.97
2024-01-11T19:14:15.533Z,98189.50
2024-01-11T19:16:43.733Z,98189.63
2024-01-11T19:19:13.020Z,98186.28
2024-01-11T19:21:41.215Z,98182.84
2024-01-11T19:24:09.675Z,98176.81
2024-01-11T19:26:41.752Z,98174.88
2024-01-11T19:29:11.630Z,98170.78
2024-01-11T19:31:39.740Z,98167.16
2024-01-11T19:34:07.873Z,98161.78
2024-01-11T19:36:39.936Z,98156.56
2024-01-11T19:39:08.453Z,98164.22
2024-01-11T19:41:36.766Z,98170.25
2024-01-11T19:44:04.960Z,98168.56
2024-01-11T19:46:34.409Z,98165.97
2024-01-11T19:49:02.816Z,98167.69
2024-01-11T19:51:32.945Z,98173.84
2024-01-11T19:54:01.158Z,98174.94
2024-01-11T19:56:31.956Z,98183.34
2024-01-11T19:59:00.907Z,98183.28
2024-01-11T20:01:29.333Z,98182.44
2024-01-11T20:04:00.884Z,98183.34
2024-01-11T20:06:29.262Z,98177.31
2024-01-11T20:08:58.103Z,98177.81
2024-01-11T20:11:26.916Z,98170.13
2024-01-11T20:13:55.083Z,98168.31
2024-01-11T20:16:23.711Z,98156.13
2024-01-11T20:18:51.769Z,98168.81
2024-01-11T20:21:21.995Z,98150.84
2024-01-11T20:23:50.616Z,98144.81
2024-01-11T20:26:21.180Z,98131.53
2024-01-11T20:28:51.618Z,98134.69
2024-01-11T20:31:19.721Z,98124.44
2024-01-11T20:33:47.929Z,98137.06
2024-01-11T20:36:16.382Z,98137.50
2024-01-11T20:38:45.872Z,98142.38
2024-01-11T20:41:15.493Z,98139.81
2024-01-11T20:43:45.690Z,98143.91
2024-01-11T20:46:14.736Z,98145.59
2024-01-11T20:48:43.296Z,98143.78
2024-01-11T20:51:14.219Z,98146.41
2024-01-11T20:53:42.392Z,98155.59
2024-01-11T20:56:12.623Z,98152.31
2024-01-11T20:58:41.852Z,98160.72
2024-01-11T21:01:10.063Z,98156.59
2024-01-11T21:03:38.339Z,98150.72
2024-01-11T21:06:07.355Z,98164.56
2024-01-11T21:08:35.920Z,98179.88
2024-01-11T21:11:04.072Z,98199.16
2024-01-11T21:13:33.585Z,98209.44
2024-01-11T21:16:01.683Z,98199.84
2024-01-11T21:18:31.307Z,98199.09
2024-01-11T21:21:00.409Z,98209.16
2024-01-11T21:23:31.068Z,98215.28
2024-01-11T21:25:59.549Z,98212.38
2024-01-11T21:28:27.729Z,98220.00
2024-01-11T21:30:57.392Z,98216.38
2024-01-11T21:33:25.870Z,98217.34
2024-01-11T21:35:54.339Z,98225.25
2024-01-11T21:38:22.337Z,98218.34
2024-01-11T21:40:52.822Z,98231.94
2024-01-11T21:43:20.813Z,98228.59
2024-01-11T21:45:49.007Z,98228.53
2024-01-11T21:48:18.497Z,98227.78
2024-01-11T21:50:46.689Z,98244.13
2024-01-11T21:53:14.813Z,98246.50
2024-01-11T21:55:42.984Z,98245.94
2024-01-11T21:58:11.146Z,98243.22
2024-01-11T22:00:40.062Z,98231.22
2024-01-11T22:03:08.272Z,98231.09
2024-01-11T22:05:38.374Z,98239.75
2024-01-11T22:08:06.465Z,98233.59
2024-01-11T22:10:34.734Z,98228.47
2024-01-11T22:13:03.047Z,98236.03
2024-01-11T22:15:31.332Z,98222.16
2024-01-11T22:17:59.789Z,98229.94
2024-01-11T22:20:28.370Z,98229.72
2024-01-11T22:22:58.512Z,98240.97
2024-01-11T22:25:27.304Z,98236.66
2024-01-11T22:27:56.040Z,98231.53
2024-01-11T22:30:24.432Z,98224.56
2024-01-11T22:32:52.702Z,98232.09
2024-01-11T22:35:21.410Z,98236.56
2024-01-11T22:37:49.663Z,98233.16
2024-01-11T22:40:19.150Z,98238.34
2024-01-11T22:42:47.611Z,98242.19
2024-01-11T22:45:15.785Z,98223.38
2024-01-11T22:47:43.976Z,98231.91
2024-01-11T22:50:12.126Z,98230.03
2024-01-11T22:52:40.558Z,98234.22
2024-01-11T22:55:08.968Z,98232.22
2024-01-11T22:57:38.326Z,98231.31
2024-01-11T23:00:21.908Z,98225.19
2024-01-11T23:02:51.521Z,98230.94
2024-01-11T23:05:20.628Z,98228.22
2024-01-11T23:07:49.365Z,98221.00
2024-01-11T23:10:18.207Z,98227.84
2024-01-11T23:12:48.234Z,98225.88
2024-01-11T23:15:16.344Z,98231.91
2024-01-11T23:17:44.788Z,98218.22
2024-01-11T23:20:13.876Z,98220.88
2024-01-11T23:22:42.142Z,98224.63
2024-01-11T23:25:10.758Z,98223.78
2024-01-11T23:27:38.967Z,98219.50
2024-01-11T23:30:10.558Z,98215.94
2024-01-11T23:32:39.891Z,98215.94
2024-01-11T23:35:08.358Z,98221.91
2024-01-11T23:37:38.057Z,98216.84
2024-01-11T23:40:08.701Z,98218.50
2024-01-11T23:42:36.896Z,98220.16
2024-01-11T23:45:09.125Z,98210.72
2024-01-11T23:47:38.910Z,98221.84
2024-01-11T23:50:08.580Z,98219.13
2024-01-11T23:52:36.652Z,98217.31
2024-01-11T23:55:04.958Z,98216.50
2024-01-11T23:57:33.322Z,98218.31
